Item Display Status Humidity-temperature Sensor

Elevation Above Sea Level: 3 m

 

Deployed Sensor

  • Serial Number: 20256959
  • NDBC Property Number: 42277
  • Start Date: 12/6/2018 (14:09:16 Z)
  • End Date: Currently Active
Relative Humidity [%]     6 entries per hour
Showing data from 1/25/2020 (01:00:00 Z) to 1/24/2020 (00:00:01 Z)
Previous Next [ Day | 3-Days | 7-Days ]
First Last
Prev [ Day | 3-Days | 7-Days ] Next
First Last

Start Time:     :
End Time:     :     
Time (in GMT) :00 :50 :40 :30 :20 :10
Previous Next [ Day | 3-Days | 7-Days ]
First Last
Prev [ Day | 3-Days | 7-Days ] Next
First Last


123 => good data
MM => data is determined as missing
-- => data not received/configured
Back to Top Back to Top
1/25/2020 01:00 to 0:10 88.23 87.88 88.39 89.23 89.07 89.29
1/25/2020 00:00 to 23:10 90.08 90.26 89.29 88.93 88.61 88.35
1/24/2020 23:00 to 22:10 87.95 87.84 87.44 87.44 86.56 86.66
1/24/2020 22:00 to 21:10 87.54 88.67 89.49 89.27 89.03 88.77
1/24/2020 21:00 to 20:10 88.43 88.49 89.21 89.92 90.80 91.67
1/24/2020 20:00 to 19:10 92.07 91.97 91.10 90.64 91.12 91.85
1/24/2020 19:00 to 18:10 91.91 90.40 88.65 88.73 87.34 87.54
1/24/2020 18:00 to 17:10 88.07 88.53 88.75 88.17 87.22 86.60
1/24/2020 17:00 to 16:10 86.17 86.03 84.71 84.00 84.81 84.89
1/24/2020 16:00 to 15:10 85.85 86.28 86.34 87.40 88.25 88.23
1/24/2020 15:00 to 14:10 87.30 87.32 89.25 90.40 90.40 90.04
1/24/2020 14:00 to 13:10 90.04 90.00 89.74 89.51 89.37 89.41
1/24/2020 13:00 to 12:10 89.72 89.66 89.74 89.64 89.86 89.94
1/24/2020 12:00 to 11:10 90.18 90.30 90.46 90.48 90.72 90.82
1/24/2020 11:00 to 10:10 90.78 90.88 90.94 90.98 90.68 90.80
1/24/2020 10:00 to 9:10 90.96 90.94 90.86 90.88 90.86 90.78
1/24/2020 09:00 to 8:10 90.62 90.62 90.64 90.66 90.56 90.56
1/24/2020 08:00 to 7:10 90.40 90.20 90.28 90.02 89.84 89.74
1/24/2020 07:00 to 6:10 89.68 89.41 89.25 89.33 89.01 88.83
1/24/2020 06:00 to 5:10 89.11 89.19 89.21 89.01 89.11 89.27
1/24/2020 05:00 to 4:10 89.88 89.82 89.74 89.68 89.43 89.49
1/24/2020 04:00 to 3:10 89.35 89.58 89.19 89.07 89.47 89.47
1/24/2020 03:00 to 2:10 89.41 90.06 89.90 89.68 89.27 89.66
1/24/2020 02:00 to 1:10 89.45 89.23 88.77 87.97 87.50 87.50
1/24/2020 01:00 to 0:10 87.80 87.76 86.42 86.46 86.48 87.42

 

 

 

Air Temperature [°C]     6 entries per hour
Showing data from 1/25/2020 (01:00:00 Z) to 1/24/2020 (00:00:01 Z)
Previous Next [ Day | 3-Days | 7-Days ]
First Last
Prev [ Day | 3-Days | 7-Days ] Next
First Last

Start Time:     :
End Time:     :     
Time (in GMT) :00 :50 :40 :30 :20 :10
Previous Next [ Day | 3-Days | 7-Days ]
First Last
Prev [ Day | 3-Days | 7-Days ] Next
First Last


123 => good data
MM => data is determined as missing
-- => data not received/configured
Back to Top Back to Top
1/25/2020 01:00 to 0:10 25.99 25.97 25.90 25.98 25.90 25.92
1/25/2020 00:00 to 23:10 25.85 26.00 25.94 26.04 26.01 25.98
1/24/2020 23:00 to 22:10 26.05 26.14 26.23 26.17 26.24 26.12
1/24/2020 22:00 to 21:10 25.99 26.01 25.90 25.93 25.81 25.80
1/24/2020 21:00 to 20:10 25.87 25.88 25.68 25.63 25.61 25.49
1/24/2020 20:00 to 19:10 25.50 25.60 25.71 25.70 25.53 25.50
1/24/2020 19:00 to 18:10 25.61 25.88 26.09 25.94 26.06 26.09
1/24/2020 18:00 to 17:10 26.07 26.07 26.06 25.99 26.19 26.27
1/24/2020 17:00 to 16:10 26.27 26.43 26.70 26.73 26.71 26.74
1/24/2020 16:00 to 15:10 26.45 26.42 26.47 26.22 25.98 25.93
1/24/2020 15:00 to 14:10 26.24 26.24 25.83 25.69 25.70 25.71
1/24/2020 14:00 to 13:10 25.57 25.55 25.62 25.58 25.52 25.46
1/24/2020 13:00 to 12:10 25.55 25.52 25.52 25.51 25.54 25.46
1/24/2020 12:00 to 11:10 25.44 25.45 25.48 25.41 25.37 25.43
1/24/2020 11:00 to 10:10 25.35 25.36 25.30 25.34 25.34 25.30
1/24/2020 10:00 to 9:10 25.34 25.37 25.33 25.37 25.40 25.44
1/24/2020 09:00 to 8:10 25.42 25.41 25.43 25.44 25.46 25.50
1/24/2020 08:00 to 7:10 25.53 25.55 25.57 25.57 25.59 25.65
1/24/2020 07:00 to 6:10 25.70 25.67 25.61 25.72 25.71 25.68
1/24/2020 06:00 to 5:10 25.71 25.72 25.72 25.71 25.76 25.66
1/24/2020 05:00 to 4:10 25.71 25.65 25.75 25.77 25.67 25.71
1/24/2020 04:00 to 3:10 25.70 25.73 25.70 25.71 25.67 25.75
1/24/2020 03:00 to 2:10 25.78 25.73 25.79 25.71 25.80 25.74
1/24/2020 02:00 to 1:10 25.76 25.77 25.88 25.95 25.86 26.01
1/24/2020 01:00 to 0:10 26.03 26.12 26.05 26.09 26.00 25.95